METAR AND TAF INFORMATION
METAR FOR LUKK
ADDS - METARS form results

(2129 UTC 18 December 2018)
Data provider http://aviationweather.gov/metar/data/
 
METAR text: LUKK 182100Z 02007KT 5000 BR FU OVC022 M03/M06 Q1029 R08/150058 NOSIG
Conditions at: LUKK (CHISINAU INTL , MD) observed 2100 UTC 18 December 2018
Temperature: -3.0°C (27°F)
Dewpoint: -6.0°C (21°F) [RH = 80%]
Pressure (altimeter): 30.38 inches Hg (1029.0 mb)
Winds: from the NNE (20 degrees) at 8 MPH (7 knots; 3.6 m/s)
Visibility: 3 miles ( 5 km)
Ceiling: 2200 feet AGL
Clouds: overcast cloud deck at 2200 feet AGL
Weather: BR FU  (mist, smoke)

METAR text: LUKK 182030Z 01006KT 6000 BKN027 M03/M06 Q1029 R08/150058 NOSIG
Conditions at: LUKK (CHISINAU INTL , MD) observed 2030 UTC 18 December 2018
Temperature: -3.0°C (27°F)
Dewpoint: -6.0°C (21°F) [RH = 80%]
Pressure (altimeter): 30.38 inches Hg (1029.0 mb)
Winds: from the N (10 degrees) at 7 MPH (6 knots; 3.1 m/s)
Visibility: 4 miles ( 6 km)
Ceiling: 2700 feet AGL
Clouds: broken clouds at 2700 feet AGL
Weather: no significant weather observed at this time

Forecast for: LUKK (CHISINAU INTL , MD)
Text: TAF LUKK 181720Z 1818/1918 02010KT 5000 BR OVC007
Forecast period: 1800 UTC 18 December 2018 to 0700 UTC 19 December 2018
Forecast type: FROM: standard forecast or significant change
Winds: from the NNE (20 degrees) at 12 MPH (10 knots; 5.1 m/s)
Visibility: 3 miles (5 km)
Ceiling: 700 feet AGL
Clouds: overcast cloud deck at 700 feet AGL
Weather: BR  (mist)
Text: TEMPO 1818/1906 2400 SN BR OVC004
Forecast period: 1800 UTC 18 December 2018 to 0600 UTC 19 December 2018
Forecast type: TEMPORARY: The following changes expected for less than half the time period
Visibility: 1.49 miles (2.40 km)
Ceiling: 400 feet AGL
Clouds: overcast cloud deck at 400 feet AGL
Weather: SN BR  (moderate snow, mist)
Text: BECMG 1907/1909 9999 NSW BKN012
Forecast period: 0700 to 1800 UTC 19 December 2018
Forecast type: BECOMING: Conditions expected to become as follows by 0900 UTC 19 December 2018
Winds: from the NNE (20 degrees) at 12 MPH (10 knots; 5.1 m/s)
Visibility: 6 or more miles 10+ km)
Ceiling: 1200 feet AGL
Clouds: broken clouds at 1200 feet AGL
Weather: NSW  (no significant weather)

 AIRPORT MAP

 RUNWAY INFORMATION
Runway 08 Runway length 11779 ft Runway width 145 ft
Runway elevation 399 ft Runway displaced threshold 0 ft Runway heading 88
Runway 26 Runway length 11779 ft Runway width 145 ft
Runway elevation 279 ft Runway displaced threshold 0 ft Runway heading 268

 AIRPORT FREQUENCIES
Type APP Name APP Frequency 125.9 MHZ
Type ATIS Name ATIS Frequency 133.7 MHZ
Type GND Name GND Frequency 121.8 MHZ
Type TWR Name TWR Frequency 118.1 MHZ

 AIRPORT NEAR NAVIGATION AIDS
Type VOR-DME Name Chisinau Frequency 113700 KHZ



Copyright © 2011 - 2018 BirgenAir Virtual Airlines. All rights reserved. Developed by Goktug Unver